Time;durP1;ratioP1;P1;durP2;ratioP2;P2;SDS_P1;SDS_P2;PMS_P1;PMS_P2;Temp;Humidity;BMP_temperature;BMP_pressure;BME280_temperature;BME280_humidity;BME280_pressure;Samples;Min_cycle;Max_cycle;Signal;HPM_P1;HPM_P2
2022/10/04 00:01:24;;;;;;;;;;;;;;;8.36;77.20;98817.94;4939727;28;20390;-75
2022/10/04 00:03:54;;;;;;;;;;;;;;;8.31;77.84;98811.66;4958394;28;19927;-75
2022/10/04 00:06:22;;;;;;;;;;;;;;;8.35;77.67;98818.94;4932692;29;20378;-75
2022/10/04 00:08:57;;;;;;;;;;;;;;;8.36;77.56;98820.63;4950230;28;20021;-77
2022/10/04 00:11:25;;;;;;;;;;;;;;;8.38;77.37;98814.94;4969070;28;19933;-75
2022/10/04 00:14:02;;;;;;;;;;;;;;;8.36;77.24;98807.09;4950795;28;19958;-75
2022/10/04 00:16:33;;;;;;;;;;;;;;;8.35;77.33;98810.84;4953126;28;19933;-75
2022/10/04 00:19:03;;;;;;;;;;;;;;;8.33;77.13;98810.31;4962580;28;20033;-75
2022/10/04 00:21:46;;;;;;;;;;;;;;;8.28;76.99;98815.72;4936604;29;19926;-75
2022/10/04 00:24:19;;;;;;;;;;;;;;;8.15;76.53;98813.59;4944168;28;19927;-75
2022/10/04 00:27:08;;;;;;;;;;;;;;;8.18;76.16;98812.22;4946526;28;20013;-75
2022/10/04 00:29:38;;;;;;;;;;;;;;;8.14;76.39;98820.06;4936943;29;20839;-75
2022/10/04 00:32:24;;;;;;;;;;;;;;;8.09;76.38;98814.66;4936587;29;20423;-75
2022/10/04 00:34:56;;;;;;;;;;;;;;;8.06;76.50;98817.94;4915502;29;19953;-75
2022/10/04 00:37:28;;;;;;;;;;;;;;;8.05;76.68;98802.78;4961115;28;20353;-82
2022/10/04 00:39:58;;;;;;;;;;;;;;;8.05;76.36;98803.59;4937326;28;19927;-74
2022/10/04 00:42:51;;;;;;;;;;;;;;;7.98;76.30;98800.34;4960280;28;20025;-75
2022/10/04 00:45:24;;;;;;;;;;;;;;;7.93;76.32;98791.41;4929217;28;20009;-75
2022/10/04 00:48:19;;;;;;;;;;;;;;;7.94;76.38;98787.66;4927802;28;19926;-76
2022/10/04 00:51:15;;;;;;;;;;;;;;;7.94;76.77;98779.53;4935397;29;19981;-73
2022/10/04 00:53:56;;;;;;;;;;;;;;;7.91;76.63;98774.66;4928787;29;19930;-76
2022/10/04 00:59:24;;;;;;;;;;;;;;;7.79;76.86;98781.16;4968689;28;19926;-76
2022/10/04 01:02:19;;;;;;;;;;;;;;;7.85;76.95;98785.47;4953535;28;19937;-76
2022/10/04 01:04:48;;;;;;;;;;;;;;;7.77;76.59;98783.31;4934102;28;20496;-74
2022/10/04 01:07:17;;;;;;;;;;;;;;;7.79;76.51;98789.28;4952123;28;20054;-76
2022/10/04 01:09:49;;;;;;;;;;;;;;;7.65;76.52;98788.19;4933428;28;19931;-76
2022/10/04 01:12:20;;;;;;;;;;;;;;;7.68;76.58;98790.38;4936018;28;19930;-77
2022/10/04 01:14:51;;;;;;;;;;;;;;;7.59;76.53;98784.69;4952380;28;19933;-76
2022/10/04 01:17:21;;;;;;;;;;;;;;;7.55;76.57;98780.88;4965457;28;19926;-76
2022/10/04 01:19:52;;;;;;;;;;;;;;;7.51;76.58;98778.97;4934728;29;19930;-76
2022/10/04 01:22:31;;;;;;;;;;;;;;;7.51;76.42;98771.72;4966029;28;19962;-76
2022/10/04 01:24:59;;;;;;;;;;;;;;;7.12;77.04;98774.09;4933509;29;19933;-77
2022/10/04 01:27:31;;;;;;;;;;;;;;;7.33;76.16;98774.94;4951114;28;20027;-74
2022/10/04 01:29:59;;;;;;;;;;;;;;;7.39;76.52;98781.16;4964844;28;19934;-76
2022/10/04 01:32:29;;;;;;;;;;;;;;;7.26;76.72;98788.72;4966975;28;19994;-77
2022/10/04 01:35:22;;;;;;;;;;;;;;;6.86;77.36;98780.50;4966337;28;20370;-74
2022/10/04 01:37:53;;;;;;;;;;;;;;;6.93;77.31;98776.50;4968857;28;19926;-76
2022/10/04 01:40:21;;;;;;;;;;;;;;;6.83;77.91;98776.47;4919790;28;20025;-76
2022/10/04 01:42:49;;;;;;;;;;;;;;;6.95;77.57;98776.22;4936596;29;19958;-74
2022/10/04 01:45:19;;;;;;;;;;;;;;;7.05;76.83;98773.53;4936277;28;19953;-76
2022/10/04 01:47:49;;;;;;;;;;;;;;;7.03;76.80;98775.69;4939354;29;19930;-74
2022/10/04 01:50:18;;;;;;;;;;;;;;;7.04;76.68;98785.44;4923352;29;19931;-74
2022/10/04 01:52:48;;;;;;;;;;;;;;;7.03;76.99;98786.47;4945117;29;19930;-73
2022/10/04 01:55:20;;;;;;;;;;;;;;;6.95;77.05;98776.22;4957050;28;20416;-77
2022/10/04 01:57:49;;;;;;;;;;;;;;;6.89;76.90;98769.19;4951543;28;20009;-74
2022/10/04 02:00:18;;;;;;;;;;;;;;;6.85;77.31;98766.19;4931173;29;19930;-75
2022/10/04 02:02:46;;;;;;;;;;;;;;;6.95;76.86;98770.81;4950605;28;19950;-74
2022/10/04 02:05:41;;;;;;;;;;;;;;;6.99;76.98;98769.22;4933969;29;19926;-74
2022/10/04 02:08:10;;;;;;;;;;;;;;;7.04;76.20;98772.72;4966846;28;19926;-76
2022/10/04 02:10:40;;;;;;;;;;;;;;;7.00;76.37;98768.13;4949700;29;19926;-76
2022/10/04 02:13:11;;;;;;;;;;;;;;;6.92;76.31;98757.81;4928089;28;19927;-74
2022/10/04 02:15:39;;;;;;;;;;;;;;;6.94;76.06;98761.09;4966984;28;19935;-74
2022/10/04 02:18:10;;;;;;;;;;;;;;;6.91;76.67;98748.91;4952209;28;19930;-74
2022/10/04 02:20:38;;;;;;;;;;;;;;;6.86;76.44;98748.09;4971235;28;19927;-74
2022/10/04 02:23:06;;;;;;;;;;;;;;;6.82;76.55;98747.81;4945348;29;19926;-75
2022/10/04 02:25:36;;;;;;;;;;;;;;;6.81;76.68;98747.00;4940597;28;19936;-74
2022/10/04 02:28:05;;;;;;;;;;;;;;;6.82;76.37;98745.94;4941660;29;19926;-74
2022/10/04 02:30:35;;;;;;;;;;;;;;;6.87;76.66;98755.09;4934645;29;20037;-76
2022/10/04 02:33:02;;;;;;;;;;;;;;;6.88;76.09;98756.75;4948656;28;19958;-74
2022/10/04 02:35:34;;;;;;;;;;;;;;;6.34;77.29;98748.97;4966071;28;19966;-76
2022/10/04 02:38:08;;;;;;;;;;;;;;;6.30;77.50;98746.81;4964125;28;19930;-76
2022/10/04 02:40:39;;;;;;;;;;;;;;;6.49;76.76;98740.94;4934877;29;19938;-74
2022/10/04 02:43:13;;;;;;;;;;;;;;;6.49;76.61;98738.25;4946691;28;20032;-74
2022/10/04 02:45:43;;;;;;;;;;;;;;;6.54;76.27;98735.56;4935063;28;19981;-76
2022/10/04 02:48:13;;;;;;;;;;;;;;;6.59;76.00;98732.88;4919796;29;19965;-74
2022/10/04 02:50:44;;;;;;;;;;;;;;;6.51;76.54;98726.13;4923501;28;19926;-74
2022/10/04 02:53:15;;;;;;;;;;;;;;;6.59;76.40;98716.69;4950508;28;19931;-74
2022/10/04 02:55:44;;;;;;;;;;;;;;;6.59;76.27;98716.69;4917281;28;19931;-76
2022/10/04 02:58:14;;;;;;;;;;;;;;;6.62;76.36;98716.16;4950240;28;20352;-76
2022/10/04 03:00:46;;;;;;;;;;;;;;;6.69;76.31;98718.63;4974567;28;19926;-76
2022/10/04 03:03:16;;;;;;;;;;;;;;;6.68;75.87;98725.91;4944394;28;19950;-74
2022/10/04 03:08:44;;;;;;;;;;;;;;;6.62;75.21;98735.06;4950074;28;19931;-74
2022/10/04 03:11:12;;;;;;;;;;;;;;;6.58;75.37;98736.66;4924725;28;19931;-75
2022/10/04 03:13:44;;;;;;;;;;;;;;;6.61;75.11;98736.16;4950140;28;20024;-76
2022/10/04 03:16:38;;;;;;;;;;;;;;;6.57;75.06;98737.75;4965150;28;19926;-74
2022/10/04 03:19:07;;;;;;;;;;;;;;;6.51;75.31;98738.81;4954308;28;20392;-73
2022/10/04 03:22:00;;;;;;;;;;;;;;;6.55;75.25;98740.72;4942196;28;20379;-74
2022/10/04 03:24:29;;;;;;;;;;;;;;;6.43;75.68;98750.09;4960751;28;19981;-74
2022/10/04 03:27:00;;;;;;;;;;;;;;;6.42;75.29;98748.50;4964678;28;19930;-74
2022/10/04 03:29:32;;;;;;;;;;;;;;;6.46;75.57;98755.00;4938560;29;19939;-74
2022/10/04 03:32:02;;;;;;;;;;;;;;;6.43;75.77;98755.50;4934616;29;19970;-74
2022/10/04 03:34:32;;;;;;;;;;;;;;;6.45;75.74;98754.19;4946795;28;19933;-74
2022/10/04 03:37:00;;;;;;;;;;;;;;;6.44;75.81;98755.22;4949506;28;19926;-74
2022/10/04 03:39:31;;;;;;;;;;;;;;;6.40;76.00;98761.44;4948967;28;19926;-74
2022/10/04 03:42:00;;;;;;;;;;;;;;;6.41;76.41;98755.78;4954968;28;19933;-74
2022/10/04 03:44:27;;;;;;;;;;;;;;;6.38;76.49;98750.09;4934423;28;19933;-74
2022/10/04 03:46:57;;;;;;;;;;;;;;;6.41;76.42;98749.56;4954355;29;19932;-74
2022/10/04 03:49:28;;;;;;;;;;;;;;;6.41;76.75;98739.59;4921726;28;20009;-74
2022/10/04 03:51:56;;;;;;;;;;;;;;;6.29;76.90;98739.00;4945163;28;20010;-74
2022/10/04 03:54:30;;;;;;;;;;;;;;;6.41;76.78;98739.59;4952112;28;19927;-74
2022/10/04 03:56:58;;;;;;;;;;;;;;;6.44;76.91;98738.22;4924266;29;19926;-74
2022/10/04 03:59:26;;;;;;;;;;;;;;;6.46;76.81;98717.19;4954261;28;19930;-74
2022/10/04 04:02:00;;;;;;;;;;;;;;;6.46;76.80;98717.19;4972736;28;19933;-74
2022/10/04 04:04:37;;;;;;;;;;;;;;;6.45;76.68;98729.88;4923851;29;20455;-76
2022/10/04 04:07:06;;;;;;;;;;;;;;;6.47;76.97;98729.63;4944571;29;19930;-76
2022/10/04 04:09:37;;;;;;;;;;;;;;;6.35;77.18;98731.72;4965748;28;19927;-74
2022/10/04 04:12:32;;;;;;;;;;;;;;;6.37;77.25;98738.47;4952473;28;19930;-75
2022/10/04 04:15:21;;;;;;;;;;;;;;;6.49;77.16;98716.66;4951114;28;19930;-76
2022/10/04 04:18:13;;;;;;;;;;;;;;;6.50;77.17;98715.59;4959319;28;20681;-74
2022/10/04 04:21:02;;;;;;;;;;;;;;;6.54;77.29;98730.97;4939705;28;19926;-74
2022/10/04 04:30:17;;;;;;;;;;;;;;;6.63;77.50;98706.19;4952211;28;19934;-75
2022/10/04 04:33:09;;;;;;;;;;;;;;;6.59;77.92;98700.50;4964902;28;20306;-77
2022/10/04 04:36:04;;;;;;;;;;;;;;;6.60;78.00;98704.81;4948309;28;19934;-74
2022/10/04 04:41:59;;;;;;;;;;;;;;;6.70;78.28;98706.72;4949572;29;19978;-74
2022/10/04 04:44:48;;;;;;;;;;;;;;;6.71;77.69;98698.38;4962340;28;19926;-74
2022/10/04 04:50:50;;;;;;;;;;;;;;;6.54;77.89;98725.56;4957432;28;19926;-75
2022/10/04 04:54:04;;;;;;;;;;;;;;;6.45;78.47;98729.88;4942871;28;20386;-74
2022/10/04 04:56:53;;;;;;;;;;;;;;;6.54;78.43;98730.16;4952724;28;20303;-74
2022/10/04 04:59:45;;;;;;;;;;;;;;;6.64;77.98;98734.81;4950015;28;19935;-74
2022/10/04 05:02:36;;;;;;;;;;;;;;;6.69;77.81;98737.50;4962979;28;19926;-89
2022/10/04 05:05:29;;;;;;;;;;;;;;;6.72;77.93;98734.28;4971097;28;19981;-76
2022/10/04 05:08:48;;;;;;;;;;;;;;;6.69;77.83;98738.31;4956385;28;20017;-77
2022/10/04 05:11:38;;;;;;;;;;;;;;;6.63;77.88;98734.00;4966121;28;20305;-74
2022/10/04 05:14:30;;;;;;;;;;;;;;;6.60;78.02;98734.50;4966153;28;20409;-74
2022/10/04 05:16:58;;;;;;;;;;;;;;;6.62;78.50;98726.97;4954000;29;19938;-73
2022/10/04 05:19:29;;;;;;;;;;;;;;;6.68;78.13;98725.91;4967909;28;19927;-72
2022/10/04 05:21:57;;;;;;;;;;;;;;;6.75;78.17;98726.44;4952512;28;20259;-73
2022/10/04 05:24:26;;;;;;;;;;;;;;;6.76;77.93;98722.66;4964826;28;20339;-72
2022/10/04 05:26:54;;;;;;;;;;;;;;;6.79;77.77;98711.34;4946099;28;19927;-77
2022/10/04 05:29:23;;;;;;;;;;;;;;;6.80;77.58;98717.56;4962661;28;20021;-75
2022/10/04 05:31:55;;;;;;;;;;;;;;;6.80;77.39;98718.38;4948117;28;19953;-76
2022/10/04 05:34:23;;;;;;;;;;;;;;;6.78;77.35;98720.53;4935704;28;19933;-84
2022/10/04 05:37:05;;;;;;;;;;;;;;;6.80;77.45;98721.06;4968016;28;20389;-75
2022/10/04 05:40:02;;;;;;;;;;;;;;;6.83;77.30;98715.16;4959355;28;19936;-77
2022/10/04 05:45:26;;;;;;;;;;;;;;;6.91;77.30;98726.50;4951003;28;19931;-73
2022/10/04 05:47:56;;;;;;;;;;;;;;;6.94;77.47;98723.28;4936058;29;19926;-72
2022/10/04 05:50:31;;;;;;;;;;;;;;;6.93;77.18;98729.75;4950310;28;19969;-72
2022/10/04 05:53:14;;;;;;;;;;;;;;;6.95;77.04;98736.50;4950488;28;19941;-72
2022/10/04 05:55:42;;;;;;;;;;;;;;;7.00;77.21;98728.41;4934788;28;19977;-72
2022/10/04 05:58:20;;;;;;;;;;;;;;;6.98;77.31;98717.06;4935674;29;19930;-73
2022/10/04 06:00:55;;;;;;;;;;;;;;;7.10;77.23;98716.81;4950435;28;19935;-72
2022/10/04 06:03:26;;;;;;;;;;;;;;;7.11;77.38;98713.03;4963421;28;20437;-72
2022/10/04 06:05:57;;;;;;;;;;;;;;;7.17;77.40;98711.94;4967653;28;19971;-77
2022/10/04 06:08:38;;;;;;;;;;;;;;;7.20;77.27;98710.59;4949685;28;19946;-77
2022/10/04 06:14:38;;;;;;;;;;;;;;;7.26;77.22;98710.34;4960546;28;19930;-77
2022/10/04 06:17:34;;;;;;;;;;;;;;;7.31;77.04;98717.63;4957094;28;20025;-77
2022/10/04 06:20:53;;;;;;;;;;;;;;;7.35;76.90;98729.53;4953745;28;19930;-77
2022/10/04 06:23:43;;;;;;;;;;;;;;;7.12;77.79;98736.25;4977485;28;19935;-77
2022/10/04 06:26:33;;;;;;;;;;;;;;;7.17;77.88;98733.56;4942043;28;20305;-77
2022/10/04 06:29:22;;;;;;;;;;;;;;;7.27;77.77;98744.38;4949617;28;20437;-77
2022/10/04 06:35:58;;;;;;;;;;;;;;;7.48;77.14;98752.50;4950665;28;19935;-72
2022/10/04 06:38:50;;;;;;;;;;;;;;;7.53;77.09;98760.63;4933568;29;19926;-72
2022/10/04 06:41:58;;;;;;;;;;;;;;;7.56;77.08;98757.34;4951466;28;19926;-72
2022/10/04 06:44:56;;;;;;;;;;;;;;;7.59;76.87;98754.94;4949799;28;19931;-73
2022/10/04 06:47:49;;;;;;;;;;;;;;;7.68;77.05;98757.91;4936537;28;19927;-76
2022/10/04 06:50:39;;;;;;;;;;;;;;;7.75;76.86;98755.72;4969303;28;19981;-73
2022/10/04 06:53:30;;;;;;;;;;;;;;;7.80;76.97;98760.34;4933894;29;20400;-73
2022/10/04 06:56:47;;;;;;;;;;;;;;;7.82;77.08;98755.44;4943171;28;19977;-74
2022/10/04 06:59:43;;;;;;;;;;;;;;;7.83;76.79;98754.41;4960149;28;20002;-75
2022/10/04 07:02:17;;;;;;;;;;;;;;;7.90;76.88;98749.50;4939839;29;20397;-73
2022/10/04 07:04:48;;;;;;;;;;;;;;;7.98;76.79;98748.94;4949227;28;19974;-73
2022/10/04 07:07:35;;;;;;;;;;;;;;;8.03;76.84;98754.34;4947928;28;20298;-77
2022/10/04 07:10:23;;;;;;;;;;;;;;;8.11;76.50;98751.09;4951355;28;19930;-77
2022/10/04 07:12:53;;;;;;;;;;;;;;;8.13;76.76;98746.19;4962681;28;20026;-75
2022/10/04 07:15:43;;;;;;;;;;;;;;;8.19;76.80;98741.56;4951393;28;19926;-84
2022/10/04 07:18:13;;;;;;;;;;;;;;;8.21;76.64;98742.13;4967461;28;19933;-84
2022/10/04 07:20:42;;;;;;;;;;;;;;;8.26;76.56;98747.53;4943969;28;19982;-81
2022/10/04 07:23:13;;;;;;;;;;;;;;;8.32;76.45;98742.91;4948520;28;20371;-85
2022/10/04 07:25:45;;;;;;;;;;;;;;;8.38;76.28;98761.59;4969190;28;19927;-85
2022/10/04 07:34:34;;;;;;;;;;;;;;;8.56;76.46;98771.00;4951665;28;19935;-84
2022/10/04 07:37:07;;;;;;;;;;;;;;;8.59;76.61;98758.81;4935971;29;19937;-85
2022/10/04 07:39:39;;;;;;;;;;;;;;;8.64;76.44;98773.13;4953871;28;20463;-85
2022/10/04 07:42:13;;;;;;;;;;;;;;;8.73;76.57;98765.22;4953944;28;20454;-85
2022/10/04 07:44:41;;;;;;;;;;;;;;;8.83;76.50;98765.19;4969130;28;19974;-84
2022/10/04 07:47:54;;;;;;;;;;;;;;;8.88;76.57;98762.44;4963483;28;19941;-85
2022/10/04 07:51:14;;;;;;;;;;;;;;;9.12;76.37;98751.75;4954957;28;19937;-79
2022/10/04 07:54:03;;;;;;;;;;;;;;;9.05;76.28;98772.09;4930306;29;19949;-78
2022/10/04 07:56:46;;;;;;;;;;;;;;;9.24;76.22;98773.09;4930126;29;20018;-78
2022/10/04 07:59:22;;;;;;;;;;;;;;;9.37;75.67;98775.16;4932664;28;19926;-80
2022/10/04 08:02:22;;;;;;;;;;;;;;;9.23;75.95;98759.81;4957664;28;19941;-80
2022/10/04 08:05:18;;;;;;;;;;;;;;;9.36;76.34;98765.41;4964648;28;19927;-77
2022/10/04 08:08:33;;;;;;;;;;;;;;;9.56;75.77;98778.00;4952866;28;19937;-79
2022/10/04 08:11:26;;;;;;;;;;;;;;;9.70;75.46;98780.91;4940787;28;20009;-79
2022/10/04 08:14:20;;;;;;;;;;;;;;;9.75;74.86;98791.72;4956915;28;19926;-80
2022/10/04 08:17:11;;;;;;;;;;;;;;;9.65;75.39;98786.38;4960709;28;19930;-79
2022/10/04 08:20:04;;;;;;;;;;;;;;;9.77;75.49;98786.00;4961602;28;19970;-79
2022/10/04 08:22:57;;;;;;;;;;;;;;;9.73;75.44;98780.31;4955078;28;20424;-78
2022/10/04 08:25:27;;;;;;;;;;;;;;;9.84;75.54;98760.13;4969641;28;19934;-78
2022/10/04 08:31:00;;;;;;;;;;;;;;;10.12;75.75;98746.81;4941506;29;19930;-78
2022/10/04 08:33:31;;;;;;;;;;;;;;;10.17;75.49;98763.06;4947712;28;19934;-78
2022/10/04 08:36:02;;;;;;;;;;;;;;;10.23;75.26;98770.09;4968917;28;19926;-79
2022/10/04 08:38:36;;;;;;;;;;;;;;;10.22;74.99;98780.09;4973978;28;19993;-78
2022/10/04 08:41:25;;;;;;;;;;;;;;;10.14;75.51;98782.66;4969423;28;19930;-79
2022/10/04 08:44:22;;;;;;;;;;;;;;;10.16;75.52;98789.41;4945823;29;19931;-79
2022/10/04 08:47:14;;;;;;;;;;;;;;;10.30;75.41;98797.72;4964341;28;20014;-75
2022/10/04 08:50:42;;;;;;;;;;;;;;;10.39;75.20;98801.44;4895614;29;19927;-74
2022/10/04 08:53:35;;;;;;;;;;;;;;;10.46;74.68;98795.66;4867641;29;19935;-80
2022/10/04 08:56:27;;;;;;;;;;;;;;;10.67;74.51;98790.81;4947212;28;19930;-81
2022/10/04 09:02:57;;;;;;;;;;;;;;;10.99;74.40;98788.22;4962906;28;19931;-83
2022/10/04 09:05:54;;;;;;;;;;;;;;;11.11;74.11;98795.94;4942865;28;20028;-79
2022/10/04 09:09:09;;;;;;;;;;;;;;;11.17;73.66;98791.22;4938623;28;19999;-80
2022/10/04 09:12:19;;;;;;;;;;;;;;;11.22;73.63;98780.28;4965415;28;19977;-81
2022/10/04 09:15:26;;;;;;;;;;;;;;;11.31;73.68;98783.97;4937837;28;19930;-79
2022/10/04 09:18:20;;;;;;;;;;;;;;;11.37;73.49;98787.41;4966687;28;20005;-83
2022/10/04 09:21:09;;;;;;;;;;;;;;;11.42;73.11;98773.72;4952148;28;20017;-77
2022/10/04 09:24:03;;;;;;;;;;;;;;;11.45;73.27;98782.13;4926485;28;19954;-77
2022/10/04 09:26:42;;;;;;;;;;;;;;;11.49;73.86;98779.59;4966519;28;19961;-77
2022/10/04 09:29:35;;;;;;;;;;;;;;;11.61;73.41;98779.97;4960915;28;19926;-76
2022/10/04 09:33:12;;;;;;;;;;;;;;;11.66;72.91;98785.31;4949812;28;20152;-76
2022/10/04 09:36:16;;;;;;;;;;;;;;;11.70;72.18;98780.09;4964409;28;19931;-76
2022/10/04 09:39:10;;;;;;;;;;;;;;;11.76;72.29;98779.69;4929904;29;19931;-76
2022/10/04 09:42:35;;;;;;;;;;;;;;;11.90;72.42;98763.44;4949770;28;19934;-76
2022/10/04 09:45:27;;;;;;;;;;;;;;;11.99;71.22;98753.50;4957364;28;19934;-78
2022/10/04 09:48:23;;;;;;;;;;;;;;;12.07;71.28;98762.88;4954833;28;19985;-80
2022/10/04 09:51:54;;;;;;;;;;;;;;;12.07;71.27;98752.78;4964840;28;20002;-81
2022/10/04 09:55:17;;;;;;;;;;;;;;;12.26;70.97;98749.19;4941373;29;19977;-80
2022/10/04 09:58:27;;;;;;;;;;;;;;;12.29;70.44;98756.75;4970093;28;19996;-81
2022/10/04 10:01:16;;;;;;;;;;;;;;;12.41;70.37;98762.53;4950570;28;19930;-81
2022/10/04 10:04:16;;;;;;;;;;;;;;;12.54;69.44;98767.16;4959916;28;19930;-81
2022/10/04 10:07:08;;;;;;;;;;;;;;;12.65;69.11;98766.94;4959224;28;19934;-81
2022/10/04 10:16:28;;;;;;;;;;;;;;;12.84;67.60;98768.47;4952185;28;19934;-81
2022/10/04 10:19:26;;;;;;;;;;;;;;;12.95;67.68;98771.78;4952497;28;19930;-81
2022/10/04 10:22:21;;;;;;;;;;;;;;;12.94;66.61;98763.88;4967242;28;19941;-81
2022/10/04 10:25:14;;;;;;;;;;;;;;;12.97;65.73;98763.28;4948074;28;19934;-81
2022/10/04 10:30:50;;;;;;;;;;;;;;;13.09;65.31;98755.38;4958237;28;19934;-82
2022/10/04 10:33:31;;;;;;;;;;;;;;;13.12;64.96;98746.56;4964317;28;19931;-80
2022/10/04 10:39:41;;;;;;;;;;;;;;;13.30;63.15;98753.00;4929665;28;20399;-81
2022/10/04 10:42:18;;;;;;;;;;;;;;;13.38;63.49;98746.84;4908183;28;19926;-81
2022/10/04 10:45:20;;;;;;;;;;;;;;;13.49;63.31;98741.94;4956907;28;19927;-80
2022/10/04 10:47:52;;;;;;;;;;;;;;;13.57;62.54;98744.72;4965993;28;19933;-80
2022/10/04 10:50:27;;;;;;;;;;;;;;;13.66;62.53;98752.16;4941133;29;19926;-81
2022/10/04 10:53:13;;;;;;;;;;;;;;;13.69;61.97;98740.59;4966728;28;19970;-81
2022/10/04 10:55:57;;;;;;;;;;;;;;;13.75;61.62;98748.38;4946244;28;20017;-76
2022/10/04 10:58:38;;;;;;;;;;;;;;;13.84;61.32;98748.41;4948183;28;19927;-77
2022/10/04 11:01:11;;;;;;;;;;;;;;;13.81;60.26;98749.06;4933033;28;20034;-77
2022/10/04 11:03:56;;;;;;;;;;;;;;;13.79;60.13;98748.53;4957724;28;19933;-77
2022/10/04 11:06:41;;;;;;;;;;;;;;;13.86;59.10;98748.94;4953440;28;19927;-79
2022/10/04 11:09:37;;;;;;;;;;;;;;;13.93;58.95;98741.09;4938671;28;19926;-80
2022/10/04 11:12:21;;;;;;;;;;;;;;;13.94;57.87;98736.44;4889226;29;19996;-76
2022/10/04 11:15:30;;;;;;;;;;;;;;;13.97;57.31;98722.97;4951252;28;20022;-76
2022/10/04 11:18:43;;;;;;;;;;;;;;;14.13;57.54;98732.34;4951386;28;19930;-81
2022/10/04 11:21:50;;;;;;;;;;;;;;;14.22;57.55;98726.94;4956714;28;19934;-81
2022/10/04 11:24:58;;;;;;;;;;;;;;;14.29;57.09;98721.03;4964238;28;19930;-81
2022/10/04 11:27:48;;;;;;;;;;;;;;;14.38;56.48;98714.47;4932456;28;19927;-81
2022/10/04 11:30:45;;;;;;;;;;;;;;;14.42;56.22;98714.63;4963606;28;19930;-77
2022/10/04 11:33:41;;;;;;;;;;;;;;;14.46;56.99;98709.34;4934897;28;19962;-77
2022/10/04 11:36:48;;;;;;;;;;;;;;;14.51;57.82;98707.28;4950010;28;20032;-76
2022/10/04 11:40:02;;;;;;;;;;;;;;;14.53;58.44;98699.56;4958432;28;20494;-77
2022/10/04 11:42:56;;;;;;;;;;;;;;;14.50;58.45;98700.22;4955137;28;19969;-76
2022/10/04 11:45:55;;;;;;;;;;;;;;;14.56;58.79;98701.66;4966453;28;19930;-77
2022/10/04 11:48:52;;;;;;;;;;;;;;;14.56;57.13;98696.19;4940205;28;19926;-76
2022/10/04 11:51:52;;;;;;;;;;;;;;;14.61;58.30;98693.31;4954321;28;19927;-77
2022/10/04 11:54:48;;;;;;;;;;;;;;;14.69;58.58;98697.19;4966097;28;19937;-77
2022/10/04 11:57:38;;;;;;;;;;;;;;;14.76;57.90;98696.75;4949896;28;19930;-77
2022/10/04 12:00:27;;;;;;;;;;;;;;;14.78;57.45;98694.47;4966346;28;19926;-86
2022/10/04 12:03:31;;;;;;;;;;;;;;;14.81;57.48;98693.84;4939602;28;20363;-86
2022/10/04 12:06:41;;;;;;;;;;;;;;;14.80;58.29;98697.69;4955630;28;20376;-86
2022/10/04 12:09:32;;;;;;;;;;;;;;;14.89;57.88;98693.03;4954779;28;19981;-86
2022/10/04 12:12:42;;;;;;;;;;;;;;;14.92;57.73;98686.94;4959588;28;19969;-80
2022/10/04 12:15:39;;;;;;;;;;;;;;;14.99;56.38;98684.50;4945915;29;20547;-86
2022/10/04 12:18:13;;;;;;;;;;;;;;;14.99;56.65;98683.72;4971498;28;19926;-86
2022/10/04 12:21:00;;;;;;;;;;;;;;;14.97;56.15;98685.94;4956625;28;20334;-80
2022/10/04 12:23:50;;;;;;;;;;;;;;;15.02;56.37;98689.34;4968807;28;21304;-80
2022/10/04 12:26:31;;;;;;;;;;;;;;;15.02;56.79;98683.06;4930563;29;19931;-77
2022/10/04 12:29:26;;;;;;;;;;;;;;;15.05;56.83;98676.94;4968231;28;19926;-76
2022/10/04 12:32:41;;;;;;;;;;;;;;;15.01;56.23;98665.84;4966761;28;19973;-87
2022/10/04 12:35:33;;;;;;;;;;;;;;;15.04;55.66;98667.94;4942730;29;19926;-81
2022/10/04 12:38:25;;;;;;;;;;;;;;;15.10;56.25;98669.38;4951171;28;20050;-81
2022/10/04 12:41:21;;;;;;;;;;;;;;;15.22;55.88;98665.19;4950580;28;19926;-85
2022/10/04 12:44:18;;;;;;;;;;;;;;;15.28;55.24;98672.91;4950294;28;19926;-85
2022/10/04 12:50:46;;;;;;;;;;;;;;;15.37;55.30;98657.28;4968195;28;19965;-81
2022/10/04 12:53:38;;;;;;;;;;;;;;;15.35;54.68;98658.75;4962253;28;19993;-81
2022/10/04 12:56:21;;;;;;;;;;;;;;;15.43;53.65;98660.66;4962124;28;19966;-80
2022/10/04 12:58:54;;;;;;;;;;;;;;;15.44;54.34;98662.25;4980314;28;19926;-80
2022/10/04 13:01:25;;;;;;;;;;;;;;;15.47;53.56;98658.88;4958382;28;19930;-81
2022/10/04 13:04:03;;;;;;;;;;;;;;;15.43;53.92;98663.38;4971607;28;20329;-81
2022/10/04 13:06:33;;;;;;;;;;;;;;;15.44;53.42;98662.25;4955219;28;19973;-86
2022/10/04 13:09:06;;;;;;;;;;;;;;;15.37;53.13;98667.44;4957908;28;20017;-86
2022/10/04 13:11:42;;;;;;;;;;;;;;;15.37;53.76;98662.75;4973940;28;19933;-92
2022/10/04 13:14:29;;;;;;;;;;;;;;;15.40;53.80;98662.13;4941104;29;20469;-91
2022/10/04 13:17:23;;;;;;;;;;;;;;;15.43;54.46;98666.13;4957292;28;19969;-93
2022/10/04 13:20:31;;;;;;;;;;;;;;;15.36;52.72;98658.41;4952153;28;19933;-92
2022/10/04 13:23:00;;;;;;;;;;;;;;;15.35;53.07;98653.28;4974650;28;19949;-92
2022/10/04 13:25:44;;;;;;;;;;;;;;;15.33;53.46;98663.72;4961324;28;19958;-92
2022/10/04 13:28:20;;;;;;;;;;;;;;;15.30;53.92;98650.69;4958037;28;19927;-92
2022/10/04 13:30:54;;;;;;;;;;;;;;;15.28;54.17;98650.19;4956503;28;20127;-92
2022/10/04 13:33:28;;;;;;;;;;;;;;;15.24;53.99;98652.00;4956653;29;19982;-92
2022/10/04 13:35:59;;;;;;;;;;;;;;;15.23;53.84;98653.09;4937644;29;19930;-92
2022/10/04 13:38:45;;;;;;;;;;;;;;;15.18;53.25;98646.69;4963778;28;19934;-92
2022/10/04 13:41:17;;;;;;;;;;;;;;;15.13;54.02;98644.13;4946371;28;19927;-86
2022/10/04 13:43:51;;;;;;;;;;;;;;;15.14;53.70;98639.44;4937539;29;19934;-88
2022/10/04 13:46:22;;;;;;;;;;;;;;;15.17;53.88;98641.53;4946199;29;20330;-89
2022/10/04 13:48:56;;;;;;;;;;;;;;;15.16;53.82;98643.47;4967538;28;20378;-86
2022/10/04 13:51:47;;;;;;;;;;;;;;;15.15;54.85;98654.72;4968126;28;20537;-83
2022/10/04 13:57:19;;;;;;;;;;;;;;;15.09;54.32;98645.88;4902363;29;19928;-91
2022/10/04 13:59:51;;;;;;;;;;;;;;;15.05;54.07;98644.13;4920303;29;20013;-91
2022/10/04 14:02:30;;;;;;;;;;;;;;;15.09;53.96;98650.56;4962815;28;19962;-81
2022/10/04 14:05:14;;;;;;;;;;;;;;;15.13;54.38;98652.34;4920189;29;19942;-82
2022/10/04 14:08:04;;;;;;;;;;;;;;;15.13;54.77;98657.81;4943343;28;19930;-82
2022/10/04 14:10:49;;;;;;;;;;;;;;;15.16;54.06;98657.13;4941259;28;20378;-91
2022/10/04 14:13:43;;;;;;;;;;;;;;;15.19;54.90;98648.28;4940345;29;19926;-90
2022/10/04 14:16:30;;;;;;;;;;;;;;;15.14;53.85;98643.00;4959212;28;20346;-91
2022/10/04 14:19:23;;;;;;;;;;;;;;;15.18;54.63;98649.44;4953266;28;20689;-85
2022/10/04 14:22:10;;;;;;;;;;;;;;;15.17;54.34;98645.06;4935270;28;20389;-85
2022/10/04 14:25:12;;;;;;;;;;;;;;;15.05;54.96;98642.19;4950376;28;19926;-86
2022/10/04 14:27:56;;;;;;;;;;;;;;;15.08;55.53;98641.53;4929323;29;19942;-94
2022/10/04 14:30:25;;;;;;;;;;;;;;;15.13;55.30;98635.09;4912897;29;19927;-95
2022/10/04 14:33:17;;;;;;;;;;;;;;;15.21;55.38;98637.00;4923493;29;20361;-95
2022/10/04 14:35:52;;;;;;;;;;;;;;;15.26;55.48;98639.59;4903279;29;19958;-91
2022/10/04 14:38:41;;;;;;;;;;;;;;;15.29;55.23;98638.16;4906221;29;19931;-91
2022/10/04 14:41:34;;;;;;;;;;;;;;;15.32;56.06;98642.97;4899405;29;19938;-89
2022/10/04 14:44:23;;;;;;;;;;;;;;;15.37;55.77;98635.38;4888430;29;19959;-96
2022/10/04 14:46:54;;;;;;;;;;;;;;;15.39;55.07;98641.34;4906535;29;19935;-80
2022/10/04 14:49:24;;;;;;;;;;;;;;;15.43;55.82;98644.22;4901217;29;20426;-81
2022/10/04 14:55:21;;;;;;;;;;;;;;;15.63;55.90;98632.63;4913235;29;20519;-80
2022/10/04 14:57:57;;;;;;;;;;;;;;;15.65;54.19;98635.81;4919287;29;19958;-80
2022/10/04 15:00:28;;;;;;;;;;;;;;;15.68;53.51;98629.69;4946503;28;20378;-80
2022/10/04 15:03:27;;;;;;;;;;;;;;;15.68;54.29;98626.16;4942060;28;19927;-81
2022/10/04 15:06:06;;;;;;;;;;;;;;;15.58;53.25;98621.00;4987770;28;19927;-78
2022/10/04 15:08:52;;;;;;;;;;;;;;;15.42;54.06;98626.19;4947373;29;19933;-78
2022/10/04 15:11:42;;;;;;;;;;;;;;;15.58;55.27;98621.81;4970831;28;20021;-78
2022/10/04 15:14:35;;;;;;;;;;;;;;;15.67;55.55;98617.13;4905114;29;19927;-78
2022/10/04 15:17:04;;;;;;;;;;;;;;;15.67;55.77;98614.41;4940351;29;19953;-82
2022/10/04 15:20:02;;;;;;;;;;;;;;;15.67;54.63;98614.41;4956176;28;20008;-82
2022/10/04 15:22:32;;;;;;;;;;;;;;;15.65;55.15;98619.38;4938644;29;19961;-81